Time;durP1;ratioP1;P1;durP2;ratioP2;P2;SDS_P1;SDS_P2;PMS_P1;PMS_P2;Temp;Humidity;BMP_temperature;BMP_pressure;BME280_temperature;BME280_humidity;BME280_pressure;Samples;Min_cycle;Max_cycle;Signal;HPM_P1;HPM_P2
2023/05/31 00:00:15;;;;;;;9.70;5.47;;;;;;;18.53;79.94;99725.38;3154837;28;20041;-66
2023/05/31 00:01:47;;;;;;;8.32;4.88;;;;;;;18.53;79.75;99732.47;3136381;28;20135;-65
2023/05/31 00:03:19;;;;;;;7.18;4.55;;;;;;;18.55;79.94;99738.47;3148679;28;20059;-66
2023/05/31 00:04:51;;;;;;;6.68;4.80;;;;;;;18.52;80.02;99729.00;3148383;28;20052;-66
2023/05/31 00:06:23;;;;;;;6.75;4.65;;;;;;;18.52;79.74;99729.00;3148471;28;20040;-66
2023/05/31 00:07:56;;;;;;;7.80;5.05;;;;;;;18.57;79.82;99731.25;3147951;28;20056;-66
2023/05/31 00:09:27;;;;;;;6.78;4.85;;;;;;;18.57;79.77;99732.09;3158210;28;20067;-67
2023/05/31 00:10:58;;;;;;;8.60;4.70;;;;;;;18.58;79.60;99732.94;3161003;28;20044;-65
2023/05/31 00:12:30;;;;;;;8.07;4.60;;;;;;;18.57;79.69;99729.44;3160939;28;20052;-66
2023/05/31 00:14:01;;;;;;;7.82;5.10;;;;;;;18.58;79.57;99730.31;3148798;28;20056;-65
2023/05/31 00:15:33;;;;;;;7.05;5.05;;;;;;;18.58;79.65;99730.31;3147887;28;20052;-65
2023/05/31 00:17:05;;;;;;;9.18;5.32;;;;;;;18.57;79.66;99731.25;3139012;28;20052;-65
2023/05/31 00:18:37;;;;;;;9.10;5.47;;;;;;;18.52;79.87;99729.00;3151290;28;20056;-65
2023/05/31 00:20:09;;;;;;;10.43;4.97;;;;;;;18.51;79.96;99732.56;3154735;28;20044;-65
2023/05/31 00:21:40;;;;;;;7.85;4.93;;;;;;;18.50;79.85;99735.34;3143801;28;20070;-66
2023/05/31 00:23:13;;;;;;;9.05;5.13;;;;;;;18.53;79.84;99746.50;3138495;28;20140;-65
2023/05/31 00:24:45;;;;;;;8.15;5.15;;;;;;;18.50;80.05;99741.47;3159014;28;20048;-66
2023/05/31 00:26:17;;;;;;;8.27;5.10;;;;;;;18.52;80.06;99741.34;3157248;28;20078;-66
2023/05/31 00:27:49;;;;;;;10.32;5.03;;;;;;;18.55;79.83;99743.75;3147164;28;20110;-65
2023/05/31 00:29:21;;;;;;;12.57;5.35;;;;;;;18.54;79.74;99740.25;3152833;28;20127;-66
2023/05/31 00:30:53;;;;;;;12.43;4.85;;;;;;;18.51;79.80;99735.22;3140639;28;20056;-66
2023/05/31 00:32:24;;;;;;;8.48;4.85;;;;;;;18.48;79.93;99734.63;3157197;28;20044;-66
2023/05/31 00:33:56;;;;;;;8.30;5.05;;;;;;;18.49;79.96;99742.44;3148032;28;20520;-66
2023/05/31 00:35:28;;;;;;;7.88;5.05;;;;;;;18.47;80.03;99739.06;3152177;28;20131;-66
2023/05/31 00:37:00;;;;;;;7.35;5.07;;;;;;;18.46;79.89;99740.03;3146078;28;20052;-66
2023/05/31 00:38:33;;;;;;;10.25;5.20;;;;;;;18.45;79.99;99742.78;3154966;28;20052;-66
2023/05/31 00:40:05;;;;;;;7.40;5.00;;;;;;;18.40;80.06;99746.63;3158616;28;20055;-66
2023/05/31 00:41:37;;;;;;;10.40;5.43;;;;;;;18.36;80.46;99752.25;3158943;28;20481;-67
2023/05/31 00:43:08;;;;;;;8.70;5.07;;;;;;;18.35;80.57;99751.41;3147975;28;20531;-66
2023/05/31 00:44:40;;;;;;;14.27;5.95;;;;;;;18.32;80.34;99750.81;3147760;28;20056;-65
2023/05/31 00:46:25;;;;;;;9.07;5.07;;;;;;;18.34;80.12;99749.75;3145800;28;20048;-65
2023/05/31 00:47:57;;;;;;;9.43;4.82;;;;;;;18.31;80.66;99754.41;3145719;28;20052;-66
2023/05/31 00:49:30;;;;;;;8.88;5.07;;;;;;;18.29;80.46;99749.25;3151205;28;20055;-66
2023/05/31 00:51:02;;;;;;;6.75;4.53;;;;;;;18.25;80.48;99745.19;3157146;28;20048;-65
2023/05/31 00:52:35;;;;;;;10.68;5.75;;;;;;;18.28;80.76;99752.88;3154092;28;20066;-66
2023/05/31 00:54:10;;;;;;;11.85;5.88;;;;;;;18.22;80.72;99753.34;3147881;28;20056;-66
2023/05/31 00:55:42;;;;;;;9.45;6.30;;;;;;;18.18;81.02;99757.16;3145947;28;20152;-65
2023/05/31 00:57:13;;;;;;;8.35;6.28;;;;;;;18.13;81.19;99749.63;3145964;28;20162;-66
2023/05/31 00:58:46;;;;;;;12.48;6.45;;;;;;;18.10;81.04;99749.84;3147160;28;20075;-66
2023/05/31 01:00:20;;;;;;;9.80;6.70;;;;;;;18.04;81.35;99744.19;3157442;28;20135;-65
2023/05/31 01:01:55;;;;;;;12.60;7.45;;;;;;;17.94;81.48;99744.91;3133728;28;20057;-66
2023/05/31 01:03:26;;;;;;;12.95;7.32;;;;;;;17.95;81.65;99765.06;3146432;28;20367;-66
2023/05/31 01:04:57;;;;;;;12.35;7.60;;;;;;;17.92;81.78;99752.13;3134963;28;20191;-65
2023/05/31 01:06:32;;;;;;;15.23;6.80;;;;;;;17.89;81.84;99752.31;3145373;28;20052;-66
2023/05/31 01:08:03;;;;;;;9.77;6.75;;;;;;;17.91;81.73;99750.41;3145875;28;20055;-65
2023/05/31 01:09:42;;;;;;;10.30;6.97;;;;;;;17.89;81.80;99752.31;3153583;28;20059;-65
2023/05/31 01:11:21;;;;;;;11.73;7.03;;;;;;;17.89;81.78;99757.59;3145669;28;20513;-66
2023/05/31 01:13:02;;;;;;;14.63;7.55;;;;;;;17.85;81.81;99763.22;3145564;28;20464;-65
2023/05/31 01:14:47;;;;;;;10.20;6.75;;;;;;;17.80;81.68;99760.94;3157125;28;20047;-65
2023/05/31 01:16:27;;;;;;;10.95;6.38;;;;;;;17.75;82.14;99763.06;3140689;28;20052;-66
2023/05/31 01:18:09;;;;;;;9.55;6.45;;;;;;;17.70;81.98;99757.28;3133835;28;20461;-66
2023/05/31 01:19:47;;;;;;;12.20;6.70;;;;;;;17.69;82.29;99761.72;3133332;28;20057;-65
2023/05/31 01:21:20;;;;;;;17.40;6.55;;;;;;;17.67;82.24;99762.78;3133380;28;20053;-65
2023/05/31 01:23:05;;;;;;;12.10;6.72;;;;;;;17.68;82.07;99756.56;3133202;28;20053;-65
2023/05/31 01:24:48;;;;;;;11.45;6.15;;;;;;;17.64;82.03;99758.59;3138803;28;20198;-65
2023/05/31 01:26:33;;;;;;;11.70;7.32;;;;;;;17.63;82.02;99764.81;3146658;28;20127;-65
2023/05/31 01:28:07;;;;;;;13.23;7.13;;;;;;;17.61;82.25;99757.97;3153230;28;20052;-65
2023/05/31 01:29:41;;;;;;;10.23;6.00;;;;;;;17.62;82.40;99764.91;3153410;28;20421;-65
2023/05/31 01:31:15;;;;;;;;;;;;;;;17.39;82.54;99769.25;3139087;28;20049;-65
2023/05/31 01:32:47;;;;;;;7.97;5.22;;;;;;;17.42;83.07;99769.03;3147102;28;19924;-65
2023/05/31 01:34:19;;;;;;;11.80;6.47;;;;;;;17.46;82.89;99771.34;3157508;28;20388;-66
2023/05/31 01:35:51;;;;;;;12.23;6.18;;;;;;;17.45;82.96;99764.41;3145963;28;20143;-66
2023/05/31 01:37:23;;;;;;;14.50;7.30;;;;;;;17.43;82.98;99752.31;3145548;28;20071;-67
2023/05/31 01:38:54;;;;;;;11.23;6.10;;;;;;;17.45;82.69;99759.13;3145570;28;20048;-67
2023/05/31 01:40:26;;;;;;;8.55;5.65;;;;;;;17.45;82.98;99756.50;3156232;28;20513;-67
2023/05/31 01:42:00;;;;;;;10.70;5.88;;;;;;;17.41;82.85;99747.13;3157360;28;20055;-67
2023/05/31 01:43:34;;;;;;;8.93;5.65;;;;;;;17.42;82.98;99759.38;3155592;28;20052;-67
2023/05/31 01:45:08;;;;;;;12.93;6.22;;;;;;;17.43;82.83;99760.19;3150457;28;20334;-67
2023/05/31 01:46:41;;;;;;;;;;;;;;;17.23;83.08;99766.91;3145429;28;20048;-67
2023/05/31 01:48:14;;;;;;;11.70;5.63;;;;;;;17.18;83.06;99746.19;3150140;28;19924;-67
2023/05/31 01:49:47;;;;;;;9.88;6.03;;;;;;;17.28;83.21;99763.00;3158072;28;20109;-67
2023/05/31 01:51:21;;;;;;;10.23;6.25;;;;;;;17.31;83.08;99761.09;3150526;28;20076;-66
2023/05/31 01:52:53;;;;;;;;;;;;;;;17.18;83.23;99761.16;3152931;28;20071;-67
2023/05/31 01:54:24;;;;;;;8.50;5.60;;;;;;;17.25;83.43;99768.50;3148725;28;19932;-67
2023/05/31 01:55:57;;;;;;;10.43;6.10;;;;;;;17.34;83.23;99763.50;3145381;28;20525;-67
2023/05/31 01:57:31;;;;;;;8.70;5.20;;;;;;;17.38;83.01;99765.78;3145470;28;20131;-67
2023/05/31 01:59:06;;;;;;;13.82;5.97;;;;;;;17.38;82.79;99765.78;3148696;28;20405;-65
2023/05/31 02:00:38;;;;;;;12.25;5.47;;;;;;;17.39;82.93;99769.25;3150924;28;20041;-65
2023/05/31 02:02:11;;;;;;;11.00;6.13;;;;;;;17.30;83.00;99762.88;3135466;28;20052;-65
2023/05/31 02:03:42;;;;;;;9.60;5.40;;;;;;;17.37;82.96;99774.66;3145728;28;20052;-65
2023/05/31 02:05:15;;;;;;;15.35;8.02;;;;;;;17.36;82.94;99769.47;3146364;28;20448;-65
2023/05/31 02:06:46;;;;;;;9.55;5.70;;;;;;;17.37;82.91;99766.75;3146497;28;20109;-65
2023/05/31 02:08:18;;;;;;;8.77;6.25;;;;;;;17.39;83.08;99770.13;3145476;28;20048;-66
2023/05/31 02:09:51;;;;;;;12.27;6.45;;;;;;;17.40;82.81;99768.31;3157908;28;20043;-65
2023/05/31 02:11:22;;;;;;;16.25;5.82;;;;;;;17.42;83.06;99769.91;3146037;28;20052;-66
2023/05/31 02:12:56;;;;;;;8.40;6.18;;;;;;;17.47;82.99;99766.91;3144954;28;20052;-65
2023/05/31 02:14:28;;;;;;;8.68;5.80;;;;;;;17.46;82.92;99768.69;3156078;28;20048;-65
2023/05/31 02:15:59;;;;;;;11.77;5.82;;;;;;;17.49;82.68;99765.84;3141528;28;20095;-64
2023/05/31 02:17:32;;;;;;;11.48;6.03;;;;;;;17.50;82.62;99762.25;3141867;28;20499;-65
2023/05/31 02:19:04;;;;;;;10.68;5.47;;;;;;;17.51;82.54;99773.63;3153508;28;20040;-65
2023/05/31 02:20:36;;;;;;;8.48;6.18;;;;;;;17.51;82.70;99769.22;3150257;28;20045;-67
2023/05/31 02:22:08;;;;;;;10.02;5.88;;;;;;;17.55;82.75;99769.81;3138511;28;20064;-67
2023/05/31 02:23:40;;;;;;;8.70;5.90;;;;;;;17.54;82.50;99757.63;3144854;28;20059;-67
2023/05/31 02:25:13;;;;;;;11.10;6.45;;;;;;;17.54;82.67;99765.50;3157145;28;20052;-68
2023/05/31 02:26:45;;;;;;;11.63;6.03;;;;;;;17.49;82.91;99760.56;3153643;28;20044;-67
2023/05/31 02:28:18;;;;;;;10.05;5.93;;;;;;;17.54;82.77;99765.50;3153155;28;20071;-67
2023/05/31 02:29:50;;;;;;;10.20;6.43;;;;;;;17.51;82.78;99763.94;3148666;28;20044;-67
2023/05/31 02:31:22;;;;;;;10.07;5.88;;;;;;;17.50;83.05;99764.03;3141266;28;20092;-67
2023/05/31 02:32:54;;;;;;;12.07;6.55;;;;;;;17.51;82.87;99765.75;3147197;28;20060;-67
2023/05/31 02:34:26;;;;;;;12.07;6.40;;;;;;;17.50;83.00;99772.78;3155877;28;20055;-67
2023/05/31 02:35:58;;;;;;;13.48;6.10;;;;;;;17.48;83.16;99772.06;3144767;28;20135;-67
2023/05/31 02:37:31;;;;;;;11.43;6.05;;;;;;;17.46;83.32;99766.06;3145048;28;20071;-68
2023/05/31 02:39:03;;;;;;;9.97;6.03;;;;;;;17.45;83.36;99774.94;3132727;28;20433;-67
2023/05/31 02:40:34;;;;;;;11.90;5.90;;;;;;;17.45;83.43;99769.66;3144334;28;20075;-67
2023/05/31 02:42:07;;;;;;;10.63;6.20;;;;;;;17.44;83.41;99773.22;3154311;28;20058;-67
2023/05/31 02:43:40;;;;;;;11.55;6.05;;;;;;;17.48;83.37;99776.47;3148408;28;20044;-66
2023/05/31 02:45:12;;;;;;;8.88;6.22;;;;;;;17.46;83.25;99771.34;3145888;28;20055;-66
2023/05/31 02:46:44;;;;;;;12.18;5.70;;;;;;;17.49;83.36;99776.38;3144692;28;20049;-65
2023/05/31 02:48:15;;;;;;;8.82;5.72;;;;;;;17.55;83.32;99782.13;3144667;28;20131;-65
2023/05/31 02:49:47;;;;;;;13.15;6.78;;;;;;;17.56;83.28;99775.91;3152922;28;20560;-65
2023/05/31 02:51:18;;;;;;;15.40;6.63;;;;;;;17.59;83.12;99792.31;3150066;28;20102;-65
2023/05/31 02:52:50;;;;;;;13.60;6.32;;;;;;;17.63;83.23;99777.97;3151335;28;20052;-65
2023/05/31 02:54:21;;;;;;;13.00;6.55;;;;;;;17.66;82.86;99783.03;3153587;28;20060;-65
2023/05/31 02:55:54;;;;;;;11.60;6.60;;;;;;;17.68;83.17;99778.47;3144929;28;20136;-66
2023/05/31 02:57:25;;;;;;;14.52;7.38;;;;;;;17.72;82.91;99779.09;3148509;28;20146;-66
2023/05/31 02:58:59;;;;;;;12.02;6.68;;;;;;;17.72;82.93;99777.28;3157373;28;20051;-65
2023/05/31 03:00:29;;;;;;;14.70;6.57;;;;;;;17.73;82.94;99784.22;3154416;28;20059;-65
2023/05/31 03:02:01;;;;;;;10.38;6.32;;;;;;;17.73;82.75;99778.97;3144724;28;20058;-65
2023/05/31 03:03:33;;;;;;;12.15;5.63;;;;;;;17.78;82.73;99781.28;3145872;28;20707;-65
2023/05/31 03:05:06;;;;;;;14.52;6.72;;;;;;;17.81;82.48;99786.34;3156916;28;20052;-65
2023/05/31 03:06:39;;;;;;;15.30;6.35;;;;;;;17.81;82.63;99793.41;3145293;28;20052;-65
2023/05/31 03:08:11;;;;;;;8.30;6.05;;;;;;;17.79;82.62;99788.22;3157276;28;20109;-65
2023/05/31 03:09:43;;;;;;;8.90;6.00;;;;;;;17.80;82.28;99784.63;3154634;28;20059;-65
2023/05/31 03:11:14;;;;;;;10.20;6.45;;;;;;;17.79;82.27;99777.69;3155902;28;20572;-66
2023/05/31 03:12:46;;;;;;;11.50;6.05;;;;;;;17.82;82.18;99782.72;3157493;28;20058;-65
2023/05/31 03:14:20;;;;;;;11.80;5.50;;;;;;;17.82;82.08;99788.00;3143410;28;20048;-65
2023/05/31 03:15:52;;;;;;;12.27;5.55;;;;;;;17.77;81.98;99784.84;3139460;28;20052;-66
2023/05/31 03:17:23;;;;;;;12.82;6.05;;;;;;;17.78;82.00;99789.19;3140595;28;20049;-67
2023/05/31 03:18:55;;;;;;;10.75;5.20;;;;;;;17.79;81.96;99787.41;3144514;28;20445;-66
2023/05/31 03:20:27;;;;;;;14.18;6.07;;;;;;;17.75;81.92;99784.13;3142399;28;20057;-67
2023/05/31 03:21:59;;;;;;;12.80;6.28;;;;;;;17.78;81.73;99783.94;3144224;28;20049;-66
2023/05/31 03:23:31;;;;;;;13.43;5.65;;;;;;;17.76;81.74;99785.78;3144455;28;20049;-65
2023/05/31 03:25:03;;;;;;;14.02;5.40;;;;;;;17.74;81.92;99783.25;3149180;28;20048;-65
2023/05/31 03:26:35;;;;;;;12.70;5.22;;;;;;;17.72;81.71;99782.56;3153190;28;20070;-65
2023/05/31 03:28:07;;;;;;;8.63;4.90;;;;;;;17.73;81.63;99794.75;3144545;28;20048;-65
2023/05/31 03:29:43;;;;;;;8.98;5.57;;;;;;;17.74;81.52;99795.59;3147267;28;20044;-65
2023/05/31 03:31:15;;;;;;;11.13;5.72;;;;;;;17.69;81.59;99795.13;3155014;28;20040;-66
2023/05/31 03:32:46;;;;;;;11.50;4.90;;;;;;;17.71;81.39;99798.47;3150295;28;20063;-66
2023/05/31 03:34:18;;;;;;;8.50;5.18;;;;;;;17.68;81.64;99796.06;3144632;28;20407;-66
2023/05/31 03:35:50;;;;;;;13.23;5.50;;;;;;;17.67;81.32;99802.28;3150002;28;20127;-66
2023/05/31 03:37:22;;;;;;;9.02;5.00;;;;;;;17.68;81.03;99801.31;3157132;28;20444;-65
2023/05/31 03:38:53;;;;;;;15.27;5.80;;;;;;;17.68;81.14;99796.91;3153007;28;20040;-64
2023/05/31 03:40:24;;;;;;;9.85;5.75;;;;;;;17.70;81.13;99795.00;3143809;28;20056;-64
2023/05/31 03:41:55;;;;;;;11.80;6.13;;;;;;;17.66;81.19;99790.91;3146286;28;20052;-65
2023/05/31 03:43:27;;;;;;;11.15;5.63;;;;;;;17.71;81.15;99801.09;3145622;28;20049;-64
2023/05/31 03:45:00;;;;;;;13.15;6.10;;;;;;;17.70;80.92;99796.78;3150436;28;20097;-65
2023/05/31 03:46:33;;;;;;;13.55;6.57;;;;;;;17.63;81.04;99800.81;3135547;28;20061;-64
2023/05/31 03:48:04;;;;;;;13.70;5.95;;;;;;;17.63;80.94;99806.09;3132251;28;20596;-64
2023/05/31 03:49:36;;;;;;;11.40;6.22;;;;;;;17.62;81.02;99799.97;3146319;28;20048;-64
2023/05/31 03:51:08;;;;;;;13.02;5.78;;;;;;;17.62;80.96;99802.63;3146575;28;20055;-64
2023/05/31 03:52:40;;;;;;;13.85;6.13;;;;;;;17.66;80.68;99803.25;3146442;28;20117;-64
2023/05/31 03:54:11;;;;;;;10.90;6.15;;;;;;;17.67;80.91;99805.75;3154328;28;20122;-65
2023/05/31 03:55:43;;;;;;;14.05;6.60;;;;;;;17.72;80.78;99797.53;3144200;28;20055;-64
2023/05/31 03:57:15;;;;;;;9.73;6.55;;;;;;;17.73;80.77;99802.66;3148852;28;20573;-65
2023/05/31 03:58:46;;;;;;;12.55;7.10;;;;;;;17.76;80.50;99798.13;3151747;28;20083;-66
2023/05/31 04:00:20;;;;;;;12.18;6.25;;;;;;;17.80;80.81;99803.06;3145955;28;20064;-66
2023/05/31 04:01:51;;;;;;;11.95;6.65;;;;;;;17.81;80.81;99798.66;3143917;28;20049;-65
2023/05/31 04:03:23;;;;;;;16.65;7.20;;;;;;;17.83;80.54;99799.38;3146350;28;20070;-65
2023/05/31 04:04:55;;;;;;;14.77;7.00;;;;;;;17.84;80.62;99798.44;3154247;28;20437;-66
2023/05/31 04:06:27;;;;;;;15.52;6.65;;;;;;;17.85;80.50;99793.03;3134065;28;20581;-65
2023/05/31 04:07:59;;;;;;;13.85;6.75;;;;;;;17.87;80.47;99803.47;3145566;28;20489;-65
2023/05/31 04:09:31;;;;;;;14.75;6.75;;;;;;;17.79;80.45;99780.31;3157098;28;20159;-66
2023/05/31 04:11:03;;;;;;;13.90;6.82;;;;;;;17.92;80.32;99801.31;3157119;28;20052;-68
2023/05/31 04:12:35;;;;;;;12.27;6.47;;;;;;;17.92;80.23;99801.31;3134155;28;20084;-66
2023/05/31 04:14:07;;;;;;;12.00;6.50;;;;;;;17.93;80.13;99798.56;3145871;28;20589;-66
2023/05/31 04:15:40;;;;;;;16.52;8.25;;;;;;;17.97;79.97;99801.81;3143317;28;20107;-66
2023/05/31 04:17:12;;;;;;;14.07;7.05;;;;;;;17.95;79.95;99803.72;3145213;28;20053;-66
2023/05/31 04:18:44;;;;;;;15.75;8.13;;;;;;;17.99;79.89;99802.53;3158735;28;20052;-67
2023/05/31 04:20:16;;;;;;;10.68;6.88;;;;;;;18.04;79.98;99799.53;3144573;28;20044;-67
2023/05/31 04:21:48;;;;;;;14.35;6.75;;;;;;;18.05;79.77;99804.69;3158435;28;20154;-69
2023/05/31 04:23:20;;;;;;;16.52;6.80;;;;;;;18.08;79.92;99799.19;3151413;28;20048;-65
2023/05/31 04:24:52;;;;;;;14.17;7.33;;;;;;;18.10;79.87;99807.84;3149899;28;20062;-67
2023/05/31 04:26:24;;;;;;;16.77;10.27;;;;;;;18.16;79.72;99806.50;3129597;28;20326;-66
2023/05/31 04:27:58;;;;;;;20.87;11.23;;;;;;;18.20;79.34;99802.69;3153367;28;20052;-66
2023/05/31 04:29:30;;;;;;;29.35;15.05;;;;;;;18.25;79.37;99802.31;3153417;28;20719;-64
2023/05/31 04:31:03;;;;;;;20.02;9.70;;;;;;;18.32;79.15;99793.84;3144038;28;20049;-64
2023/05/31 04:32:35;;;;;;;14.40;8.05;;;;;;;18.36;79.10;99807.59;3153240;28;20397;-65
2023/05/31 04:34:07;;;;;;;177.43;121.65;;;;;;;18.39;78.89;99810.00;3157504;28;20056;-65
2023/05/31 04:35:38;;;;;;;19.40;8.65;;;;;;;18.42;78.45;99812.41;3152759;28;20044;-66
2023/05/31 04:37:10;;;;;;;15.45;6.78;;;;;;;18.46;78.51;99808.59;3146028;28;20570;-63
2023/05/31 04:38:42;;;;;;;16.20;6.82;;;;;;;18.51;78.52;99810.84;3146204;28;20052;-63
2023/05/31 04:40:14;;;;;;;15.32;6.68;;;;;;;18.55;78.04;99809.66;3147606;28;20079;-65
2023/05/31 04:41:46;;;;;;;205.98;107.68;;;;;;;18.60;78.23;99818.03;3158152;28;20413;-65
2023/05/31 04:43:18;;;;;;;20.40;9.93;;;;;;;18.63;78.14;99818.66;3146036;28;20551;-64
2023/05/31 04:44:51;;;;;;;20.38;7.93;;;;;;;18.67;78.02;99819.25;3145824;28;20127;-65
2023/05/31 04:46:24;;;;;;;14.77;7.07;;;;;;;18.71;77.45;99818.03;3136548;28;20456;-66
2023/05/31 04:47:55;;;;;;;10.73;6.13;;;;;;;18.72;77.28;99821.50;3145405;28;20074;-66
2023/05/31 04:49:27;;;;;;;9.90;5.47;;;;;;;18.75;77.24;99818.66;3158788;28;20134;-66
2023/05/31 04:50:59;;;;;;;12.07;5.90;;;;;;;18.78;76.95;99818.44;3158699;28;20048;-69
2023/05/31 04:52:32;;;;;;;18.20;6.72;;;;;;;18.79;77.05;99823.59;3158089;28;20051;-71
2023/05/31 04:54:05;;;;;;;13.48;6.65;;;;;;;18.76;77.02;99815.91;3148435;28;20080;-67
2023/05/31 04:55:37;;;;;;;14.35;6.80;;;;;;;18.80;76.79;99827.06;3145485;28;20056;-68
2023/05/31 04:57:09;;;;;;;10.85;5.55;;;;;;;18.84;77.10;99832.00;3145655;28;20048;-68
2023/05/31 04:58:41;;;;;;;13.77;6.65;;;;;;;18.81;76.78;99824.31;3146061;28;20712;-69
2023/05/31 05:00:16;;;;;;;16.20;6.90;;;;;;;18.92;76.49;99836.66;3148838;28;20057;-67
2023/05/31 05:01:50;;;;;;;11.77;6.25;;;;;;;18.98;76.27;99841.44;3144601;28;20505;-67
2023/05/31 05:03:22;;;;;;;13.52;6.13;;;;;;;19.01;76.17;99845.63;3145704;28;20154;-68
2023/05/31 05:04:54;;;;;;;18.35;6.60;;;;;;;19.07;76.15;99845.97;3145687;28;20109;-73
2023/05/31 05:06:27;;;;;;;12.23;6.25;;;;;;;19.09;75.80;99845.88;3143916;28;20067;-68
2023/05/31 05:07:59;;;;;;;12.70;5.97;;;;;;;19.06;75.70;99852.22;3145718;28;20082;-70
2023/05/31 05:09:30;;;;;;;11.88;5.60;;;;;;;19.12;75.85;99852.72;3155239;28;20079;-68
2023/05/31 05:11:02;;;;;;;17.02;6.20;;;;;;;19.15;75.99;99841.91;3153489;28;20436;-72
2023/05/31 05:12:35;;;;;;;12.15;6.65;;;;;;;19.20;75.45;99850.31;3155974;28;20586;-69
2023/05/31 05:14:07;;;;;;;12.98;5.90;;;;;;;19.20;75.54;99845.84;3145876;28;20052;-69
2023/05/31 05:15:39;;;;;;;10.63;6.65;;;;;;;19.21;75.45;99844.88;3142597;28;20045;-69
2023/05/31 05:17:12;;;;;;;12.75;6.15;;;;;;;19.23;75.00;99844.78;3141831;28;20044;-69
2023/05/31 05:18:44;;;;;;;12.60;6.80;;;;;;;19.22;75.22;99854.47;3153800;28;20101;-69
2023/05/31 05:20:16;;;;;;;13.43;5.88;;;;;;;19.26;75.38;99853.28;3154264;28;20054;-69
2023/05/31 05:21:48;;;;;;;16.65;6.30;;;;;;;19.30;74.94;99854.69;3147372;28;20527;-69
2023/05/31 05:23:21;;;;;;;9.73;4.97;;;;;;;19.38;75.05;99858.53;3151861;28;20137;-70
2023/05/31 05:24:52;;;;;;;10.85;5.90;;;;;;;19.39;74.74;99862.84;3148505;28;20537;-69
2023/05/31 05:26:25;;;;;;;12.13;6.13;;;;;;;19.44;74.67;99861.50;3153917;28;20044;-67
2023/05/31 05:27:57;;;;;;;14.80;6.50;;;;;;;19.39;74.29;99850.47;3136230;28;20055;-68
2023/05/31 05:29:29;;;;;;;11.18;5.80;;;;;;;19.49;74.09;99869.91;3140537;28;20106;-68
2023/05/31 05:31:03;;;;;;;12.50;6.28;;;;;;;19.51;73.93;99864.50;3141188;28;20048;-68
2023/05/31 05:32:36;;;;;;;12.20;5.63;;;;;;;19.55;73.71;99865.91;3147135;28;20139;-68
2023/05/31 05:34:09;;;;;;;12.63;5.95;;;;;;;19.54;73.87;99866.88;3139787;28;20060;-68
2023/05/31 05:35:41;;;;;;;16.77;6.32;;;;;;;19.55;73.70;99868.53;3139445;28;20056;-69
2023/05/31 05:37:14;;;;;;;11.20;5.82;;;;;;;19.61;73.47;99873.34;3138886;28;20063;-68
2023/05/31 05:38:45;;;;;;;13.17;7.07;;;;;;;19.62;73.66;99879.47;3145689;28;20060;-68
2023/05/31 05:40:17;;;;;;;12.57;6.40;;;;;;;19.65;73.51;99876.63;3143310;28;20053;-70
2023/05/31 05:41:49;;;;;;;13.30;5.85;;;;;;;19.68;73.10;99879.84;3139503;28;20059;-68
2023/05/31 05:43:22;;;;;;;15.80;5.97;;;;;;;19.72;72.84;99875.97;3135031;28;20053;-69
2023/05/31 05:45:12;;;;;;;11.30;6.10;;;;;;;19.73;72.73;99876.84;3145660;28;20049;-68
2023/05/31 05:46:45;;;;;;;13.07;5.70;;;;;;;19.76;72.76;99879.22;3137470;28;20048;-67
2023/05/31 05:48:48;;;;;;;14.07;5.78;;;;;;;19.82;73.06;99883.13;3142987;28;20102;-68
2023/05/31 05:50:48;;;;;;;11.35;5.63;;;;;;;19.86;72.63;99880.13;3157544;28;20090;-67
2023/05/31 05:52:27;;;;;;;13.63;6.22;;;;;;;19.88;72.33;99888.78;3136161;28;20052;-69
2023/05/31 05:54:00;;;;;;;10.20;6.45;;;;;;;19.87;72.14;99886.25;3139111;28;20083;-68
2023/05/31 05:55:49;;;;;;;16.00;6.43;;;;;;;19.89;72.18;99893.09;3146885;28;20143;-68
2023/05/31 05:57:21;;;;;;;8.77;5.53;;;;;;;19.90;72.00;99880.69;3153759;28;20047;-69
2023/05/31 05:59:21;;;;;;;8.50;5.95;;;;;;;19.98;71.47;99888.84;3138294;28;20522;-68
2023/05/31 06:01:05;;;;;;;13.95;5.43;;;;;;;20.02;71.73;99894.72;3135487;28;20051;-68
2023/05/31 06:02:38;;;;;;;11.60;5.25;;;;;;;20.11;71.52;99891.28;3141602;28;20060;-68
2023/05/31 06:04:11;;;;;;;14.23;5.47;;;;;;;20.20;71.10;99899.31;3139367;28;20174;-67
2023/05/31 06:05:53;;;;;;;15.35;5.75;;;;;;;20.21;70.65;99894.88;3144047;28;20063;-67
2023/05/31 06:07:26;;;;;;;15.98;5.93;;;;;;;20.23;70.53;99895.56;3144986;28;20052;-67
2023/05/31 06:08:58;;;;;;;14.52;5.70;;;;;;;20.30;70.40;99893.25;3152818;28;20052;-68
2023/05/31 06:10:33;;;;;;;13.40;5.35;;;;;;;20.36;70.05;99892.72;3137948;28;20044;-68
2023/05/31 06:12:07;;;;;;;19.90;5.65;;;;;;;20.44;69.98;99895.56;3147234;28;20446;-68
2023/05/31 06:13:40;;;;;;;12.38;5.57;;;;;;;20.52;69.58;99898.41;3157932;28;20518;-68
2023/05/31 06:15:15;;;;;;;14.55;5.43;;;;;;;20.61;69.07;99902.09;3154043;28;20044;-68
2023/05/31 06:16:47;;;;;;;17.65;6.10;;;;;;;20.66;69.00;99898.09;3137690;28;20127;-67
2023/05/31 06:18:19;;;;;;;16.95;5.47;;;;;;;20.74;68.66;99904.53;3144718;28;20044;-67
2023/05/31 06:19:56;;;;;;;12.40;5.53;;;;;;;20.81;68.16;99903.88;3150217;28;20040;-67
2023/05/31 06:21:28;;;;;;;12.98;5.80;;;;;;;20.86;68.25;99899.00;3137379;28;20513;-67
2023/05/31 06:23:01;;;;;;;16.02;6.35;;;;;;;20.92;68.18;99902.13;3139521;28;20120;-67
2023/05/31 06:24:33;;;;;;;12.47;6.20;;;;;;;20.95;67.63;99907.97;3144667;28;20066;-66
2023/05/31 06:26:06;;;;;;;10.57;5.93;;;;;;;21.01;67.87;99903.97;3144919;28;20338;-66
2023/05/31 06:27:38;;;;;;;11.52;5.32;;;;;;;21.09;67.72;99897.03;3141939;28;20052;-66
2023/05/31 06:29:10;;;;;;;17.95;5.72;;;;;;;21.16;67.59;99897.31;3139736;28;20083;-65
2023/05/31 06:30:43;;;;;;;15.15;6.03;;;;;;;21.24;67.43;99894.00;3144726;28;20414;-65
2023/05/31 06:32:15;;;;;;;13.95;5.05;;;;;;;21.31;66.61;99890.66;3144631;28;20442;-68
2023/05/31 06:33:48;;;;;;;12.43;6.07;;;;;;;21.34;66.15;99894.84;3141451;28;20438;-65
2023/05/31 06:35:22;;;;;;;8.93;5.28;;;;;;;21.30;66.03;99894.28;3139675;28;20826;-65
2023/05/31 06:36:55;;;;;;;19.98;6.38;;;;;;;21.28;66.04;99890.09;3144759;28;20044;-66
2023/05/31 06:38:28;;;;;;;;;;;;;;;21.07;66.36;99891.00;3144994;28;20091;-69
2023/05/31 06:40:00;;;;;;;13.52;5.68;;;;;;;21.09;66.35;99894.38;3139263;28;20393;-68
2023/05/31 06:41:34;;;;;;;13.13;5.40;;;;;;;21.13;66.42;99893.13;3136598;28;20130;-67
2023/05/31 06:43:06;;;;;;;17.98;5.82;;;;;;;21.22;65.79;99895.94;3142237;28;20206;-64
2023/05/31 06:44:38;;;;;;;9.85;5.03;;;;;;;21.28;65.99;99895.41;3149984;28;20508;-64
2023/05/31 06:46:12;;;;;;;12.57;4.90;;;;;;;21.32;65.57;99899.44;3138475;28;20588;-64
2023/05/31 06:47:44;;;;;;;8.27;5.55;;;;;;;21.36;65.68;99892.94;3135764;28;20080;-65
2023/05/31 06:49:16;;;;;;;11.23;5.85;;;;;;;21.44;65.29;99881.66;3139160;28;20048;-65
2023/05/31 06:50:51;;;;;;;11.95;5.28;;;;;;;21.51;64.97;99896.03;3141489;28;20479;-65
2023/05/31 06:52:23;;;;;;;17.77;5.20;;;;;;;21.53;64.77;99886.13;3138602;28;20488;-66
2023/05/31 06:53:55;;;;;;;12.20;6.50;;;;;;;21.53;64.79;99884.34;3145039;28;20140;-68
2023/05/31 06:55:28;;;;;;;13.60;5.22;;;;;;;21.62;65.02;99887.09;3144740;28;20151;-69
2023/05/31 06:57:00;;;;;;;9.80;5.35;;;;;;;21.68;64.73;99902.47;3144524;28;20090;-66
2023/05/31 06:58:32;;;;;;;13.45;5.65;;;;;;;21.74;64.42;99892.16;3134817;28;20103;-69
2023/05/31 07:00:07;;;;;;;11.65;5.20;;;;;;;21.80;63.86;99893.44;3141488;28;20103;-69
2023/05/31 07:01:39;;;;;;;12.70;4.63;;;;;;;21.86;63.79;99895.53;3133047;28;20098;-68
2023/05/31 07:03:10;;;;;;;10.93;4.47;;;;;;;21.92;63.41;99896.78;3143061;28;20064;-68
2023/05/31 07:04:43;;;;;;;9.27;4.75;;;;;;;21.84;62.75;99880.72;3143246;28;20057;-68
2023/05/31 07:06:16;;;;;;;12.98;5.45;;;;;;;22.00;62.59;99896.88;3145308;28;20098;-65
2023/05/31 07:07:48;;;;;;;11.57;5.90;;;;;;;22.04;62.80;99896.47;3156196;28;20444;-69
2023/05/31 07:09:20;;;;;;;79.45;48.33;;;;;;;22.11;62.94;99893.25;3154716;28;20133;-69
2023/05/31 07:10:52;;;;;;;14.95;8.02;;;;;;;22.17;62.32;99895.38;3138748;28;20048;-67
2023/05/31 07:12:24;;;;;;;9.88;4.30;;;;;;;22.23;61.96;99897.47;3139927;28;20121;-66
2023/05/31 07:14:01;;;;;;;12.52;4.97;;;;;;;22.30;61.54;99885.28;3153600;28;20048;-66